createdAt,value
2022-10-18T00:03:54.409Z,13.00
2022-10-18T00:12:05.362Z,11.70
2022-10-18T00:20:12.045Z,11.80
2022-10-18T00:28:19.979Z,11.23
2022-10-18T00:36:26.146Z,10.60
2022-10-18T00:45:01.296Z,10.65
2022-10-18T00:53:13.295Z,11.43
2022-10-18T01:01:18.764Z,11.30
2022-10-18T01:09:35.467Z,11.25
2022-10-18T01:17:48.965Z,11.65
2022-10-18T01:26:06.502Z,12.23
2022-10-18T01:34:19.870Z,11.20
2022-10-18T01:42:25.523Z,12.05
2022-10-18T01:50:37.770Z,11.32
2022-10-18T01:58:49.534Z,10.80
2022-10-18T02:07:05.155Z,9.90
2022-10-18T02:15:12.865Z,10.93
2022-10-18T02:23:25.977Z,10.75
2022-10-18T02:31:38.281Z,10.70
2022-10-18T02:39:49.767Z,10.30
2022-10-18T02:47:55.474Z,10.77
2022-10-18T02:56:03.479Z,9.65
2022-10-18T03:04:08.964Z,10.95
2022-10-18T03:12:16.827Z,10.13
2022-10-18T03:20:22.095Z,10.02
2022-10-18T03:28:30.229Z,10.90
2022-10-18T03:36:35.853Z,11.23
2022-10-18T03:44:43.694Z,10.00
2022-10-18T03:52:48.954Z,10.20
2022-10-18T04:00:58.098Z,9.95
2022-10-18T04:09:05.373Z,9.82
2022-10-18T04:17:15.843Z,10.50
2022-10-18T04:25:21.313Z,9.57
2022-10-18T04:33:29.376Z,10.40
2022-10-18T04:41:34.722Z,9.98
2022-10-18T04:49:42.667Z,10.43
2022-10-18T04:57:47.989Z,10.80
2022-10-18T05:06:03.614Z,10.32
2022-10-18T05:14:10.300Z,9.48
2022-10-18T05:22:18.191Z,10.43
2022-10-18T05:30:23.717Z,9.82
2022-10-18T05:38:33.169Z,9.43
2022-10-18T05:46:38.665Z,9.27
2022-10-18T05:54:46.573Z,9.77
2022-10-18T06:02:51.862Z,10.27
2022-10-18T06:10:59.812Z,10.07
2022-10-18T06:19:05.137Z,8.68
2022-10-18T06:27:13.121Z,9.75
2022-10-18T06:35:18.520Z,11.98
2022-10-18T06:43:26.852Z,9.27
2022-10-18T06:51:32.124Z,9.57
2022-10-18T06:59:40.056Z,9.82
2022-10-18T07:07:45.417Z,8.77
2022-10-18T07:16:02.739Z,9.50
2022-10-18T07:24:08.459Z,8.77
2022-10-18T07:32:16.828Z,9.77
2022-10-18T07:40:22.154Z,9.52
2022-10-18T07:48:30.675Z,8.80
2022-10-18T07:56:35.976Z,8.90
2022-10-18T08:04:43.914Z,9.50
2022-10-18T08:12:49.329Z,8.18
2022-10-18T08:20:57.455Z,6.97
2022-10-18T08:29:23.370Z,5.78
2022-10-18T08:37:31.059Z,6.65
2022-10-18T08:45:43.139Z,7.15
2022-10-18T08:53:59.731Z,6.45
2022-10-18T09:02:15.507Z,6.15
2022-10-18T09:10:36.422Z,5.88
2022-10-18T09:18:59.538Z,5.43
2022-10-18T09:27:14.898Z,5.50
2022-10-18T09:35:23.396Z,5.38
2022-10-18T09:43:45.702Z,6.20
2022-10-18T09:51:53.533Z,5.22
2022-10-18T10:00:03.529Z,6.80
2022-10-18T10:08:10.587Z,5.00
2022-10-18T10:16:18.726Z,4.90
2022-10-18T10:32:48.915Z,4.63
2022-10-18T10:40:54.570Z,6.40
2022-10-18T10:57:31.148Z,4.47
2022-10-18T11:05:47.235Z,7.15
2022-10-18T11:14:07.402Z,6.20
2022-10-18T11:22:27.194Z,5.55
2022-10-18T11:30:53.644Z,5.30
2022-10-18T11:39:10.563Z,4.40
2022-10-18T11:47:24.994Z,4.38
2022-10-18T11:55:41.401Z,4.10
2022-10-18T12:04:00.506Z,4.57
2022-10-18T12:12:14.113Z,5.50
2022-10-18T12:20:26.736Z,4.30
2022-10-18T12:28:46.232Z,5.38
2022-10-18T12:37:06.789Z,4.30
2022-10-18T12:45:26.851Z,5.90
2022-10-18T12:53:32.463Z,5.20
2022-10-18T13:02:22.009Z,5.05
2022-10-18T13:10:38.749Z,5.00
2022-10-18T13:18:57.175Z,4.63
2022-10-18T13:27:36.785Z,5.18
2022-10-18T13:35:55.855Z,5.10
2022-10-18T13:44:17.250Z,4.63
2022-10-18T13:52:32.287Z,4.28
2022-10-18T14:00:57.870Z,4.93
2022-10-18T14:09:19.564Z,4.57
2022-10-18T14:17:43.016Z,5.38
2022-10-18T14:25:52.137Z,5.18
2022-10-18T14:33:59.710Z,4.50
2022-10-18T14:42:07.659Z,4.85
2022-10-18T14:50:26.173Z,5.97
2022-10-18T14:58:39.280Z,7.10
2022-10-18T15:06:46.784Z,6.68
2022-10-18T15:14:55.878Z,7.40
2022-10-18T15:23:23.726Z,6.95
2022-10-18T15:31:33.015Z,8.80
2022-10-18T15:39:38.327Z,7.40
2022-10-18T15:48:01.433Z,9.80
2022-10-18T15:56:09.512Z,11.82
2022-10-18T16:04:21.649Z,12.60
2022-10-18T16:12:26.852Z,17.65
2022-10-18T16:20:34.731Z,17.45
2022-10-18T16:28:40.690Z,15.18
2022-10-18T16:36:48.739Z,16.15
2022-10-18T16:44:55.115Z,17.10
2022-10-18T16:53:02.944Z,25.20
2022-10-18T17:01:09.204Z,29.95
2022-10-18T17:09:18.305Z,28.50
2022-10-18T17:17:23.589Z,37.75
2022-10-18T17:33:58.732Z,37.30
2022-10-18T17:42:07.489Z,40.28
2022-10-18T17:50:13.213Z,37.55
2022-10-18T17:58:21.242Z,36.35
2022-10-18T18:06:31.154Z,29.67
2022-10-18T18:14:41.885Z,27.88
2022-10-18T18:22:47.360Z,118.60
2022-10-18T18:31:00.355Z,61.17
2022-10-18T18:39:05.871Z,34.80
2022-10-18T18:47:13.988Z,30.58
2022-10-18T18:55:19.557Z,28.67
2022-10-18T19:03:27.679Z,27.33
2022-10-18T19:11:35.808Z,30.35
2022-10-18T19:19:43.865Z,28.27
2022-10-18T19:27:49.272Z,26.63
2022-10-18T19:35:57.344Z,25.33
2022-10-18T19:44:02.830Z,28.45
2022-10-18T19:52:12.492Z,27.27
2022-10-18T20:00:19.680Z,25.85
2022-10-18T20:08:28.393Z,23.65
2022-10-18T20:16:35.648Z,23.88
2022-10-18T20:24:43.483Z,22.38
2022-10-18T20:32:48.821Z,20.33
2022-10-18T20:40:56.716Z,24.13
2022-10-18T20:49:01.991Z,24.92
2022-10-18T20:57:09.945Z,23.60
2022-10-18T21:05:16.672Z,25.95
2022-10-18T21:13:24.507Z,23.05
2022-10-18T21:21:29.774Z,24.45
2022-10-18T21:29:39.164Z,24.92
2022-10-18T21:37:44.419Z,22.58
2022-10-18T21:45:52.297Z,21.35
2022-10-18T21:54:00.588Z,20.08
2022-10-18T22:02:08.454Z,21.98
2022-10-18T22:10:13.695Z,21.30
2022-10-18T22:18:21.845Z,20.77
2022-10-18T22:26:28.443Z,20.55
2022-10-18T22:34:36.827Z,22.00
2022-10-18T22:42:42.113Z,21.75
2022-10-18T22:50:49.951Z,20.70
2022-10-18T22:58:55.675Z,27.27
2022-10-18T23:07:03.507Z,27.40
2022-10-18T23:15:09.955Z,26.38
2022-10-18T23:23:17.814Z,20.63
2022-10-18T23:31:25.287Z,19.42
2022-10-18T23:39:33.299Z,18.60
2022-10-18T23:47:38.615Z,17.60
2022-10-18T23:55:55.062Z,13.95
